Costa Mesa, CA (92626)

1:31 PM PDT on August 21, 2014 (GMT -0700)
Upper Newport Bay - W6IT | Change Station
CLOSE
Current Station
Personal Weather Station
Location: Newport Beach, CA
Elevation: 75 ft
Nearby Weather Stations
Active Advisory: Beach Hazard Statement Active Notice: Record Report

Elev 75 ft 33.65 °N, 117.90 °W | Updated 3 seconds ago

Scattered Clouds
Scattered Clouds
76.3 °F
Feels Like 78 °F
N
5.0
Wind Variable Wind from WSW
Gusts 7.0 mph

Today
High -- | Low -- °F
--% Chance of Precip.
Yesterday
High -- | Low -- °F
Precip. -- in
6:18 AM 7:30 PM
Waning Crescent, 12% visible
Pressure 29.94 in
Visibility 10.0 miles
Clouds Few 4500 ft
Scattered Clouds 8000 ft
Heat Index 78 °F
Dew Point 65 °F
Humidity 69%
Rainfall 0.00 in
Snow Depth Not available.
UV 9 out of 12
Pollen 5.40 out of 12
Ozone Good
Flu Activity Not available.
METAR KSNA 211953Z 26006KT 10SM FEW045 SCT080 26/16 A2994 RMK AO2 SLP137 TCU N-E T02610161

More Conditions Fewer Conditions

Pressure 29.94 in
Visibility 10.0 miles
Clouds Few 4500 ft
Scattered Clouds 8000 ft
Heat Index 78 °F
Dew Point 65 °F
Humidity 69%
Rainfall 0.00 in
Snow Depth Not available.
UV 9 out of 12
Pollen 5.40 out of 12
Ozone Good
Flu Activity Not available.
METAR KSNA 211953Z 26006KT 10SM FEW045 SCT080 26/16 A2994 RMK AO2 SLP137 TCU N-E T02610161

More Conditions Fewer Conditions

10-Day Weather Forecast

Almanac

Astronomy

Aug. 21, 2014 Rise Set
Actual Time 6:18 AM PDT 7:30 PM PDT
Civil Twilight 5:52 AM PDT 7:56 PM PDT
Nautical Twilight 5:21 AM PDT 8:27 PM PDT
Astronomical Twilight 4:48 AM PDT 8:59 PM PDT
Moon 2:57 AM PDT 4:59 PM PDT
Length of Visible Light 14h 04m
Length of Day
13h 12m
Tomorrow will be 1m 54s shorter.
Waning Crescent, 12% of the Moon is Illuminated
Today
Waning Crescent
Aug 25
New
Sep 2
First Quarter
Sep 8
Full
Sep 15
Last Quarter

Today's Extremes

State Highs State Lows

Community

WunderPhotos

Upload Photos

1,746,018 photos uploaded!

WunderBlogs® & News

Nearby

Air Quality

  Air Quality AQ Index Pollutant
Yesterday Good
OZONE
Current Good
OZONE
Friday Good
PM10
Friday Good
OZONE
Friday Good
CO
Friday Good
NO2

Snow Depth

Station Depth Elevation
Leavitt Meadows 0 in 7200 ft
Tahoe City Cross 0 in 6750 ft
CSS Lab 1 in 6900 ft
Adin Mountain 0 in 6200 ft
Cedar Pass 0 in 7100 ft

Earthquake Activity

City Distance Mag. Time & Date
Malibu Beach, California 50 miles 3.4 10:03 AM PDT
2014-08-15
Yucca Valley, California 94 miles 3.8 8:57 PM PDT
2014-08-14
Minimum magnitude displayed is 2.5.

Coastal Water Temperatures

Place Temperature
Santa Monica Pier 72.0 °F
Los Angeles, CA 68.0 °F
La Jolla, CA 72.0 °F

Nearby Weather Stations